createdAt,value
2023-03-04T00:02:20.310Z,68.56
2023-03-04T00:04:47.095Z,68.96
2023-03-04T00:07:19.091Z,68.72
2023-03-04T00:09:46.505Z,68.92
2023-03-04T00:12:17.641Z,69.03
2023-03-04T00:14:44.248Z,69.00
2023-03-04T00:17:10.901Z,69.46
2023-03-04T00:19:37.713Z,69.04
2023-03-04T00:22:04.683Z,69.19
2023-03-04T00:24:32.125Z,69.31
2023-03-04T00:26:59.170Z,69.46
2023-03-04T00:29:26.016Z,69.50
2023-03-04T00:31:52.760Z,69.46
2023-03-04T00:34:22.334Z,69.38
2023-03-04T00:36:49.115Z,69.19
2023-03-04T00:39:16.003Z,69.46
2023-03-04T00:41:42.982Z,69.29
2023-03-04T00:44:09.564Z,69.27
2023-03-04T00:46:36.120Z,69.54
2023-03-04T00:49:05.077Z,69.42
2023-03-04T00:51:31.884Z,69.28
2023-03-04T00:54:01.164Z,69.22
2023-03-04T00:56:28.170Z,69.13
2023-03-04T00:58:54.956Z,69.47
2023-03-04T01:01:21.686Z,69.69
2023-03-04T01:03:48.277Z,69.27
2023-03-04T01:06:18.136Z,69.82
2023-03-04T01:08:45.033Z,69.74
2023-03-04T01:11:12.269Z,69.77
2023-03-04T01:13:39.793Z,69.62
2023-03-04T01:16:07.439Z,69.88
2023-03-04T01:18:34.294Z,70.02
2023-03-04T01:21:01.097Z,69.82
2023-03-04T01:23:27.889Z,70.07
2023-03-04T01:25:54.588Z,69.86
2023-03-04T01:28:21.162Z,69.49
2023-03-04T01:30:50.172Z,70.11
2023-03-04T01:33:19.159Z,70.12
2023-03-04T01:35:45.919Z,70.03
2023-03-04T01:38:14.775Z,70.36
2023-03-04T01:40:41.397Z,69.93
2023-03-04T01:43:13.081Z,70.15
2023-03-04T01:45:43.379Z,70.55
2023-03-04T01:48:14.604Z,70.39
2023-03-04T01:50:45.787Z,70.37
2023-03-04T01:53:22.077Z,70.30
2023-03-04T01:55:49.233Z,70.24
2023-03-04T01:58:18.196Z,70.25
2023-03-04T02:00:44.958Z,70.29
2023-03-04T02:03:19.778Z,70.42
2023-03-04T02:05:50.088Z,70.58
2023-03-04T02:08:19.303Z,70.43
2023-03-04T02:10:46.389Z,70.62
2023-03-04T02:13:14.730Z,70.71
2023-03-04T02:15:42.890Z,70.72
2023-03-04T02:18:20.769Z,70.65
2023-03-04T02:21:04.638Z,70.66
2023-03-04T02:23:39.462Z,70.86
2023-03-04T02:26:11.334Z,70.60
2023-03-04T02:28:40.346Z,70.87
2023-03-04T02:31:07.336Z,70.68
2023-03-04T02:33:34.032Z,70.58
2023-03-04T02:36:00.658Z,70.58
2023-03-04T02:38:27.321Z,70.92
2023-03-04T02:40:56.110Z,70.74
2023-03-04T02:43:24.921Z,70.83
2023-03-04T02:45:51.610Z,70.93
2023-03-04T02:48:24.087Z,70.95
2023-03-04T02:50:53.040Z,71.39
2023-03-04T02:53:21.221Z,71.18
2023-03-04T02:55:50.361Z,71.08
2023-03-04T02:58:17.268Z,71.07
2023-03-04T03:00:43.908Z,71.37
2023-03-04T03:03:13.043Z,71.19
2023-03-04T03:05:40.177Z,71.02
2023-03-04T03:08:09.682Z,71.11
2023-03-04T03:10:36.434Z,71.49
2023-03-04T03:13:03.191Z,71.27
2023-03-04T03:15:29.944Z,71.41
2023-03-04T03:17:57.771Z,71.41
2023-03-04T03:20:27.001Z,71.39
2023-03-04T03:22:53.565Z,71.34
2023-03-04T03:25:20.187Z,71.41
2023-03-04T03:27:46.875Z,71.30
2023-03-04T03:30:15.210Z,71.79
2023-03-04T03:32:44.054Z,71.23
2023-03-04T03:35:13.347Z,71.50
2023-03-04T03:37:39.965Z,71.41
2023-03-04T03:40:07.220Z,71.39
2023-03-04T03:42:36.265Z,71.39
2023-03-04T03:45:03.052Z,71.20
2023-03-04T03:47:29.669Z,70.99
2023-03-04T03:49:56.236Z,71.09
2023-03-04T03:52:22.786Z,71.31
2023-03-04T03:54:49.480Z,71.11
2023-03-04T03:57:16.049Z,71.31
2023-03-04T03:59:42.652Z,70.92
2023-03-04T04:02:09.307Z,71.14
2023-03-04T04:04:36.058Z,71.16
2023-03-04T04:07:02.676Z,71.12
2023-03-04T04:09:32.206Z,70.85
2023-03-04T04:12:01.441Z,71.23
2023-03-04T04:14:27.997Z,71.08
2023-03-04T04:16:54.657Z,71.43
2023-03-04T04:19:21.790Z,71.42
2023-03-04T04:21:49.090Z,71.43
2023-03-04T04:24:16.270Z,71.39
2023-03-04T04:26:43.194Z,71.46
2023-03-04T04:29:15.202Z,71.37
2023-03-04T04:31:42.118Z,71.43
2023-03-04T04:34:09.090Z,71.50
2023-03-04T04:36:38.032Z,71.64
2023-03-04T04:39:07.151Z,71.82
2023-03-04T04:41:41.501Z,71.71
2023-03-04T04:44:09.362Z,71.47
2023-03-04T04:46:36.279Z,71.55
2023-03-04T04:49:03.787Z,71.52
2023-03-04T04:51:30.689Z,71.45
2023-03-04T04:54:01.889Z,71.56
2023-03-04T04:56:29.212Z,71.40
2023-03-04T04:59:00.794Z,71.59
2023-03-04T05:01:27.894Z,71.28
2023-03-04T05:03:55.552Z,71.52
2023-03-04T05:06:25.595Z,71.57
2023-03-04T05:08:54.798Z,71.38
2023-03-04T05:11:21.484Z,71.54
2023-03-04T05:13:48.464Z,71.75
2023-03-04T05:16:16.555Z,71.48
2023-03-04T05:18:43.582Z,71.18
2023-03-04T05:21:10.285Z,71.34
2023-03-04T05:23:39.812Z,71.30
2023-03-04T05:26:08.814Z,71.39
2023-03-04T05:28:35.530Z,71.62
2023-03-04T05:31:04.844Z,71.59
2023-03-04T05:33:33.763Z,71.68
2023-03-04T05:36:03.090Z,72.02
2023-03-04T05:38:32.135Z,72.28
2023-03-04T05:41:04.216Z,71.87
2023-03-04T05:43:35.591Z,71.89
2023-03-04T05:46:07.748Z,72.14
2023-03-04T05:48:34.344Z,72.47
2023-03-04T05:51:01.722Z,72.40
2023-03-04T05:53:29.106Z,72.32
2023-03-04T05:55:56.000Z,72.25
2023-03-04T05:58:22.809Z,72.53
2023-03-04T06:00:49.578Z,72.84
2023-03-04T06:03:20.617Z,72.70
2023-03-04T06:05:49.935Z,73.07
2023-03-04T06:08:16.606Z,72.91
2023-03-04T06:10:43.284Z,73.17
2023-03-04T06:13:10.889Z,72.83
2023-03-04T06:15:39.611Z,73.36
2023-03-04T06:18:07.631Z,73.45
2023-03-04T06:20:34.295Z,72.85
2023-03-04T06:23:00.881Z,73.01
2023-03-04T06:25:27.759Z,73.51
2023-03-04T06:27:56.874Z,73.51
2023-03-04T06:30:26.872Z,74.10
2023-03-04T06:32:53.444Z,73.71
2023-03-04T06:35:20.201Z,74.21
2023-03-04T06:37:47.452Z,73.79
2023-03-04T06:40:16.564Z,73.97
2023-03-04T06:42:45.366Z,74.59
2023-03-04T06:45:14.605Z,74.71
2023-03-04T06:47:41.228Z,74.73
2023-03-04T06:50:13.002Z,75.13
2023-03-04T06:52:40.009Z,75.09
2023-03-04T06:55:07.800Z,75.18
2023-03-04T06:57:34.577Z,75.37
2023-03-04T07:00:03.327Z,75.00
2023-03-04T07:02:29.916Z,74.92
2023-03-04T07:04:57.465Z,75.17
2023-03-04T07:10:08.583Z,74.94
2023-03-04T07:12:36.470Z,74.73
2023-03-04T07:15:03.131Z,74.86
2023-03-04T07:17:29.771Z,74.86
2023-03-04T07:19:56.477Z,75.44
2023-03-04T07:22:26.027Z,75.42
2023-03-04T07:24:55.630Z,75.34
2023-03-04T07:27:22.275Z,75.56
2023-03-04T07:29:48.862Z,75.51
2023-03-04T07:32:15.518Z,75.19
2023-03-04T07:34:44.513Z,75.39
2023-03-04T07:37:16.061Z,75.31
2023-03-04T07:39:42.716Z,75.32
2023-03-04T07:42:09.386Z,75.45
2023-03-04T07:44:36.017Z,75.39
2023-03-04T07:47:02.610Z,75.32
2023-03-04T07:49:29.173Z,75.37
2023-03-04T07:51:55.984Z,75.39
2023-03-04T07:54:22.713Z,75.16
2023-03-04T07:56:49.321Z,75.21
2023-03-04T07:59:15.905Z,74.85
2023-03-04T08:01:45.655Z,74.86
2023-03-04T08:04:15.344Z,74.99
2023-03-04T08:06:44.576Z,74.72
2023-03-04T08:09:14.089Z,74.32
2023-03-04T08:11:41.934Z,73.81
2023-03-04T08:14:12.188Z,73.84
2023-03-04T08:16:38.955Z,73.64
2023-03-04T08:19:06.361Z,72.53
2023-03-04T08:21:34.492Z,72.51
2023-03-04T08:24:08.691Z,71.43
2023-03-04T08:26:41.852Z,71.35
2023-03-04T08:29:11.339Z,71.67
2023-03-04T08:31:39.377Z,71.60
2023-03-04T08:34:07.806Z,72.42
2023-03-04T08:36:37.446Z,71.61
2023-03-04T08:39:05.555Z,71.18
2023-03-04T08:41:32.234Z,70.60
2023-03-04T08:44:02.589Z,70.79
2023-03-04T08:46:29.534Z,70.72
2023-03-04T08:48:58.354Z,70.72
2023-03-04T08:51:25.447Z,70.04
2023-03-04T08:53:54.318Z,69.32
2023-03-04T08:56:20.950Z,69.29
2023-03-04T08:58:52.232Z,69.69
2023-03-04T09:01:18.802Z,69.42
2023-03-04T09:03:50.416Z,69.34
2023-03-04T09:06:17.986Z,69.86
2023-03-04T09:08:47.700Z,69.68
2023-03-04T09:11:14.683Z,69.17
2023-03-04T09:13:41.418Z,68.79
2023-03-04T09:16:15.091Z,69.34
2023-03-04T09:18:42.224Z,68.77
2023-03-04T09:21:09.474Z,67.73
2023-03-04T09:23:37.051Z,68.06
2023-03-04T09:26:31.829Z,68.29
2023-03-04T09:29:00.605Z,67.03
2023-03-04T09:31:29.136Z,67.49
2023-03-04T09:34:00.111Z,67.42
2023-03-04T09:36:26.847Z,68.15
2023-03-04T09:38:53.761Z,68.43
2023-03-04T09:41:36.596Z,68.85
2023-03-04T09:44:15.192Z,69.20
2023-03-04T09:46:45.873Z,69.63
2023-03-04T09:49:15.840Z,69.75
2023-03-04T09:51:58.874Z,68.91
2023-03-04T09:54:56.701Z,68.42
2023-03-04T09:57:53.480Z,67.32
2023-03-04T10:00:34.872Z,66.65
2023-03-04T10:03:10.685Z,65.43
2023-03-04T10:05:52.742Z,65.26
2023-03-04T10:08:50.168Z,65.95
2023-03-04T10:11:27.852Z,66.97
2023-03-04T10:14:20.185Z,68.20
2023-03-04T10:16:55.993Z,68.98
2023-03-04T10:19:30.804Z,69.25
2023-03-04T10:22:01.857Z,69.53
2023-03-04T10:24:30.243Z,69.64
2023-03-04T10:27:04.948Z,70.12
2023-03-04T10:29:33.393Z,70.95
2023-03-04T10:32:00.257Z,71.08
2023-03-04T10:34:30.033Z,71.33
2023-03-04T10:37:08.866Z,71.70
2023-03-04T10:39:46.288Z,72.27
2023-03-04T10:42:15.839Z,72.55
2023-03-04T10:45:00.516Z,72.83
2023-03-04T10:47:32.795Z,73.11
2023-03-04T10:50:02.118Z,73.24
2023-03-04T10:52:55.846Z,73.85
2023-03-04T10:55:27.524Z,73.96
2023-03-04T10:57:57.997Z,73.70
2023-03-04T11:00:26.701Z,72.82
2023-03-04T11:03:13.390Z,72.83
2023-03-04T11:05:40.006Z,72.43
2023-03-04T11:08:18.653Z,71.96
2023-03-04T11:10:45.623Z,71.03
2023-03-04T11:13:12.127Z,71.11
2023-03-04T11:15:59.084Z,70.84
2023-03-04T11:18:46.788Z,70.97
2023-03-04T11:21:24.009Z,71.56
2023-03-04T11:23:58.943Z,72.32
2023-03-04T11:26:40.167Z,72.85
2023-03-04T11:29:18.947Z,73.44
2023-03-04T11:31:45.458Z,73.57
2023-03-04T11:34:27.947Z,74.40
2023-03-04T11:36:57.379Z,73.89
2023-03-04T11:39:29.993Z,73.35
2023-03-04T11:42:12.788Z,72.64
2023-03-04T11:44:41.473Z,72.00
2023-03-04T11:47:28.892Z,72.36
2023-03-04T11:50:08.694Z,72.26
2023-03-04T11:52:35.232Z,72.43
2023-03-04T11:55:38.245Z,72.12
2023-03-04T11:58:19.267Z,71.91
2023-03-04T12:01:02.091Z,72.17
2023-03-04T12:04:12.356Z,71.92
2023-03-04T12:06:54.221Z,72.41
2023-03-04T12:09:45.665Z,72.07
2023-03-04T12:12:24.354Z,72.31
2023-03-04T12:15:26.224Z,72.23
2023-03-04T12:18:08.138Z,72.03
2023-03-04T12:21:01.103Z,72.00
2023-03-04T12:24:01.635Z,72.19
2023-03-04T12:26:31.224Z,72.18
2023-03-04T12:28:57.739Z,73.14
2023-03-04T12:31:42.441Z,73.53
2023-03-04T12:34:30.315Z,73.85
2023-03-04T12:37:12.138Z,73.46
2023-03-04T12:40:13.189Z,72.96
2023-03-04T12:43:13.286Z,72.89
2023-03-04T12:45:58.776Z,72.57
2023-03-04T12:48:41.992Z,72.67
2023-03-04T12:51:32.331Z,73.25
2023-03-04T12:54:20.915Z,73.44
2023-03-04T12:56:56.282Z,73.63
2023-03-04T12:59:28.838Z,74.34
2023-03-04T13:02:12.216Z,74.36
2023-03-04T13:04:41.635Z,75.44
2023-03-04T13:07:34.045Z,75.77
2023-03-04T13:10:16.855Z,76.66
2023-03-04T13:13:04.543Z,76.45
2023-03-04T13:15:33.122Z,76.46
2023-03-04T13:18:21.827Z,76.78
2023-03-04T13:21:06.105Z,77.13
2023-03-04T13:23:33.049Z,76.71
2023-03-04T13:26:00.070Z,76.77
2023-03-04T13:28:31.347Z,76.94
2023-03-04T13:30:59.581Z,77.06
2023-03-04T13:33:26.195Z,77.09
2023-03-04T13:36:02.392Z,77.06
2023-03-04T13:38:35.059Z,76.56
2023-03-04T13:41:16.774Z,76.44
2023-03-04T13:43:56.572Z,76.09
2023-03-04T13:46:27.460Z,76.11
2023-03-04T13:48:57.135Z,76.74
2023-03-04T13:51:41.427Z,76.73
2023-03-04T13:54:16.260Z,76.85
2023-03-04T13:56:50.912Z,77.12
2023-03-04T13:59:48.018Z,77.42
2023-03-04T14:02:20.166Z,77.73
2023-03-04T14:04:57.032Z,77.99
2023-03-04T14:07:29.673Z,78.11
2023-03-04T14:10:23.285Z,78.32
2023-03-04T14:12:59.095Z,78.07
2023-03-04T14:15:30.864Z,77.81
2023-03-04T14:18:00.058Z,77.61
2023-03-04T14:20:37.698Z,77.31
2023-03-04T14:23:23.314Z,76.77
2023-03-04T14:25:50.073Z,76.99
2023-03-04T14:28:19.860Z,76.42
2023-03-04T14:30:55.714Z,76.48
2023-03-04T14:33:25.708Z,76.04
2023-03-04T14:35:55.257Z,76.24
2023-03-04T14:38:38.158Z,75.64
2023-03-04T14:41:19.764Z,75.42
2023-03-04T14:44:17.154Z,75.70
2023-03-04T14:47:06.357Z,74.79
2023-03-04T14:49:36.853Z,75.50
2023-03-04T14:52:03.891Z,75.58
2023-03-04T14:54:33.566Z,75.54
2023-03-04T14:57:23.811Z,75.77
2023-03-04T14:59:51.883Z,75.57
2023-03-04T15:02:33.360Z,75.56
2023-03-04T15:05:25.845Z,75.54
2023-03-04T15:07:58.017Z,75.77
2023-03-04T15:10:28.625Z,75.38
2023-03-04T15:13:00.938Z,75.96
2023-03-04T15:15:35.880Z,75.78
2023-03-04T15:18:27.760Z,75.61
2023-03-04T15:21:06.005Z,75.41
2023-03-04T15:23:33.929Z,75.32
2023-03-04T15:26:05.912Z,75.60
2023-03-04T15:28:38.250Z,76.15
2023-03-04T15:31:06.773Z,75.07
2023-03-04T15:33:34.241Z,75.56
2023-03-04T15:36:02.748Z,75.25
2023-03-04T15:38:30.081Z,74.80
2023-03-04T15:40:59.521Z,74.97
2023-03-04T15:43:26.981Z,74.62
2023-03-04T15:45:54.152Z,75.13
2023-03-04T15:48:23.481Z,74.48
2023-03-04T15:50:56.607Z,74.79
2023-03-04T15:53:55.377Z,74.69
2023-03-04T15:56:25.757Z,74.71
2023-03-04T15:59:06.744Z,74.60
2023-03-04T16:01:41.340Z,74.88
2023-03-04T16:04:21.460Z,74.74
2023-03-04T16:06:50.394Z,75.01
2023-03-04T16:09:19.989Z,74.73
2023-03-04T16:11:47.897Z,74.72
2023-03-04T16:14:16.233Z,75.07
2023-03-04T16:16:44.421Z,75.02
2023-03-04T16:19:11.140Z,74.83
2023-03-04T16:21:38.018Z,75.19
2023-03-04T16:24:12.571Z,74.98
2023-03-04T16:26:39.587Z,75.04
2023-03-04T16:29:06.213Z,75.04
2023-03-04T16:31:35.232Z,75.09
2023-03-04T16:34:01.900Z,74.85
2023-03-04T16:36:31.972Z,74.78
2023-03-04T16:39:03.481Z,74.61
2023-03-04T16:41:30.808Z,75.02
2023-03-04T16:44:01.237Z,74.82
2023-03-04T16:46:28.294Z,75.06
2023-03-04T16:48:57.742Z,74.96
2023-03-04T16:51:24.870Z,74.77
2023-03-04T16:53:56.285Z,74.73
2023-03-04T16:56:23.803Z,74.45
2023-03-04T16:58:50.492Z,74.72
2023-03-04T17:01:26.287Z,75.11
2023-03-04T17:03:56.749Z,74.84
2023-03-04T17:06:25.766Z,75.03
2023-03-04T17:08:52.396Z,75.31
2023-03-04T17:11:23.937Z,75.72
2023-03-04T17:13:51.541Z,75.57
2023-03-04T17:16:18.757Z,75.23
2023-03-04T17:18:48.672Z,75.21
2023-03-04T17:21:20.165Z,75.70
2023-03-04T17:23:46.862Z,75.57
2023-03-04T17:26:16.809Z,75.86
2023-03-04T17:28:43.629Z,75.39
2023-03-04T17:31:16.594Z,75.62
2023-03-04T17:33:43.905Z,75.57
2023-03-04T17:36:12.788Z,75.72
2023-03-04T17:38:39.741Z,75.83
2023-03-04T17:41:09.250Z,75.51
2023-03-04T17:43:36.088Z,75.74
2023-03-04T17:46:08.248Z,75.38
2023-03-04T17:48:37.590Z,75.96
2023-03-04T17:51:04.517Z,75.63
2023-03-04T17:53:36.399Z,75.47
2023-03-04T17:56:05.618Z,75.98
2023-03-04T17:58:35.219Z,75.68
2023-03-04T18:01:04.143Z,75.86
2023-03-04T18:03:30.970Z,75.91
2023-03-04T18:05:57.758Z,75.89
2023-03-04T18:08:24.346Z,76.12
2023-03-04T18:10:51.031Z,76.09
2023-03-04T18:13:17.764Z,76.07
2023-03-04T18:15:46.850Z,75.99
2023-03-04T18:18:15.936Z,75.83
2023-03-04T18:20:42.763Z,75.64
2023-03-04T18:23:09.364Z,75.79
2023-03-04T18:25:38.436Z,75.76
2023-03-04T18:28:05.169Z,75.80
2023-03-04T18:30:32.241Z,75.79
2023-03-04T18:33:02.767Z,75.82
2023-03-04T18:35:31.813Z,75.46
2023-03-04T18:38:01.265Z,75.64
2023-03-04T18:40:31.754Z,75.35
2023-03-04T18:43:00.115Z,75.19
2023-03-04T18:45:29.109Z,75.10
2023-03-04T18:47:59.118Z,74.88
2023-03-04T18:50:26.121Z,75.15
2023-03-04T18:52:55.171Z,74.76
2023-03-04T18:55:22.754Z,74.90
2023-03-04T18:57:52.822Z,74.75
2023-03-04T19:00:23.996Z,74.73
2023-03-04T19:03:06.363Z,75.03
2023-03-04T19:05:33.688Z,74.88
2023-03-04T19:08:00.305Z,74.79
2023-03-04T19:10:28.974Z,74.72
2023-03-04T19:12:57.520Z,74.87
2023-03-04T19:15:24.288Z,74.85
2023-03-04T19:17:53.088Z,74.74
2023-03-04T19:20:19.822Z,74.93
2023-03-04T19:22:46.557Z,75.01
2023-03-04T19:25:15.540Z,74.81
2023-03-04T19:27:44.588Z,74.71
2023-03-04T19:30:11.748Z,74.58
2023-03-04T19:32:38.386Z,74.54
2023-03-04T19:35:05.385Z,74.66
2023-03-04T19:37:32.044Z,74.77
2023-03-04T19:39:58.645Z,75.04
2023-03-04T19:42:27.660Z,74.79
2023-03-04T19:44:56.736Z,74.88
2023-03-04T19:47:23.313Z,74.64
2023-03-04T19:49:49.893Z,74.97
2023-03-04T19:52:21.300Z,74.79
2023-03-04T19:54:47.844Z,74.53
2023-03-04T19:57:14.437Z,74.60
2023-03-04T19:59:43.261Z,74.67
2023-03-04T20:02:09.821Z,74.57
2023-03-04T20:04:36.412Z,74.46
2023-03-04T20:07:03.732Z,74.52
2023-03-04T20:09:30.323Z,74.26
2023-03-04T20:11:59.166Z,74.36
2023-03-04T20:14:28.642Z,74.40
2023-03-04T20:17:00.901Z,74.61
2023-03-04T20:19:27.617Z,74.54
2023-03-04T20:21:54.452Z,74.55
2023-03-04T20:24:23.290Z,74.56
2023-03-04T20:26:50.541Z,74.18
2023-03-04T20:29:17.686Z,74.24
2023-03-04T20:31:44.970Z,73.97
2023-03-04T20:34:14.266Z,73.61
2023-03-04T20:36:41.222Z,73.58
2023-03-04T20:39:25.749Z,73.78
2023-03-04T20:41:55.745Z,73.87
2023-03-04T20:44:22.356Z,73.58
2023-03-04T20:46:48.954Z,73.93
2023-03-04T20:49:24.550Z,73.95
2023-03-04T20:52:03.262Z,73.56
2023-03-04T20:54:30.400Z,73.65
2023-03-04T20:56:59.241Z,74.02
2023-03-04T20:59:26.513Z,73.59
2023-03-04T21:01:59.379Z,73.52
2023-03-04T21:04:26.282Z,73.72
2023-03-04T21:06:53.973Z,73.78
2023-03-04T21:09:22.365Z,73.71
2023-03-04T21:11:52.206Z,73.92
2023-03-04T21:14:24.486Z,73.75
2023-03-04T21:16:59.823Z,74.25
2023-03-04T21:19:32.084Z,74.31
2023-03-04T21:21:59.851Z,74.16
2023-03-04T21:24:30.905Z,74.75
2023-03-04T21:26:58.125Z,74.82
2023-03-04T21:29:28.108Z,74.89
2023-03-04T21:32:24.952Z,74.97
2023-03-04T21:34:53.309Z,74.93
2023-03-04T21:37:24.233Z,75.23
2023-03-04T21:39:51.056Z,75.20
2023-03-04T21:42:17.746Z,75.54
2023-03-04T21:44:50.820Z,75.37
2023-03-04T21:47:21.534Z,75.27
2023-03-04T21:49:50.852Z,75.43
2023-03-04T21:52:19.329Z,75.13
2023-03-04T21:54:48.391Z,75.15
2023-03-04T21:57:17.676Z,74.91
2023-03-04T21:59:44.314Z,74.83
2023-03-04T22:02:24.397Z,74.94
2023-03-04T22:04:51.114Z,74.92
2023-03-04T22:07:18.735Z,74.70
2023-03-04T22:09:45.345Z,74.79
2023-03-04T22:12:15.785Z,74.73
2023-03-04T22:14:42.967Z,74.94
2023-03-04T22:17:12.002Z,75.25
2023-03-04T22:19:41.129Z,75.36
2023-03-04T22:22:10.179Z,75.41
2023-03-04T22:24:38.977Z,75.53
2023-03-04T22:27:05.659Z,75.55
2023-03-04T22:29:32.280Z,75.13
2023-03-04T22:31:59.172Z,75.47
2023-03-04T22:34:25.942Z,75.39
2023-03-04T22:36:57.526Z,75.25
2023-03-04T22:39:24.169Z,75.42
2023-03-04T22:41:50.804Z,75.55
2023-03-04T22:44:19.976Z,75.71
2023-03-04T22:46:49.121Z,75.71
2023-03-04T22:49:15.932Z,76.23
2023-03-04T22:51:44.365Z,76.33
2023-03-04T22:54:16.613Z,76.18
2023-03-04T22:56:43.460Z,76.34
2023-03-04T22:59:10.856Z,76.60
2023-03-04T23:01:37.768Z,76.64
2023-03-04T23:04:04.698Z,76.73
2023-03-04T23:06:31.657Z,76.67
2023-03-04T23:08:59.338Z,76.74
2023-03-04T23:11:29.759Z,76.91
2023-03-04T23:13:57.463Z,77.00
2023-03-04T23:16:25.646Z,77.03
2023-03-04T23:18:54.751Z,76.77
2023-03-04T23:21:24.740Z,77.06
2023-03-04T23:23:52.718Z,76.99
2023-03-04T23:26:25.928Z,76.85
2023-03-04T23:28:55.762Z,77.03
2023-03-04T23:31:22.939Z,77.22
2023-03-04T23:33:49.857Z,76.61
2023-03-04T23:36:21.521Z,77.44
2023-03-04T23:38:49.039Z,77.14
2023-03-04T23:41:18.678Z,77.39
2023-03-04T23:43:46.940Z,77.29
2023-03-04T23:46:16.365Z,77.51
2023-03-04T23:48:46.427Z,77.79
2023-03-04T23:51:20.477Z,77.61
2023-03-04T23:53:47.990Z,77.75
2023-03-04T23:56:23.904Z,77.85
2023-03-04T23:58:50.822Z,77.79
